Time;durP1;ratioP1;P1;durP2;ratioP2;P2;SDS_P1;SDS_P2;PMS_P1;PMS_P2;Temp;Humidity;BMP_temperature;BMP_pressure;BME280_temperature;BME280_humidity;BME280_pressure;Samples;Min_cycle;Max_cycle;Signal;HPM_P1;HPM_P2
2023/03/23 00:01:36;;;;;;;7.13;2.40;;;;;;;;;;5061261;28;20024;-78
2023/03/23 00:04:03;;;;;;;2.92;2.55;;;;;;;;;;5054778;28;20029;-78
2023/03/23 00:06:32;;;;;;;6.90;2.55;;;;;;;;;;5058287;28;20029;-78
2023/03/23 00:09:05;;;;;;;6.25;2.78;;;;;;;;;;5062848;28;20021;-78
2023/03/23 00:11:32;;;;;;;5.90;2.88;;;;;;;;;;5053145;28;21118;-77
2023/03/23 00:14:00;;;;;;;6.38;2.70;;;;;;;;;;5049079;28;20028;-78
2023/03/23 00:16:31;;;;;;;6.82;2.22;;;;;;;;;;5059166;28;20537;-78
2023/03/23 00:18:59;;;;;;;8.05;2.25;;;;;;;;;;5056499;28;20082;-78
2023/03/23 00:21:33;;;;;;;3.58;2.22;;;;;;;;;;5059381;28;20048;-78
2023/03/23 00:24:02;;;;;;;5.80;2.55;;;;;;;;;;5052955;28;20021;-79
2023/03/23 00:26:29;;;;;;;8.65;2.85;;;;;;;;;;5056638;28;20029;-78
2023/03/23 00:28:56;;;;;;;7.75;2.75;;;;;;;;;;5058127;28;20037;-77
2023/03/23 00:31:22;;;;;;;8.30;2.70;;;;;;;;;;5059670;28;20075;-77
2023/03/23 00:33:48;;;;;;;11.45;3.17;;;;;;;;;;5065430;28;20021;-78
2023/03/23 00:36:14;;;;;;;10.43;2.97;;;;;;;;;;5056034;28;20025;-78
2023/03/23 00:38:41;;;;;;;7.22;2.50;;;;;;;;;;5057396;28;20025;-78
2023/03/23 00:41:11;;;;;;;9.50;2.92;;;;;;;;;;5063892;28;20075;-79
2023/03/23 00:43:38;;;;;;;10.25;3.08;;;;;;;;;;5053318;28;20029;-78
2023/03/23 00:46:09;;;;;;;5.65;2.42;;;;;;;;;;5056727;28;20028;-78
2023/03/23 00:48:36;;;;;;;6.70;2.90;;;;;;;;;;5060515;28;20123;-78
2023/03/23 00:51:12;;;;;;;9.80;2.88;;;;;;;;;;5063378;28;20040;-77
2023/03/23 00:53:41;;;;;;;8.02;2.58;;;;;;;;;;5061583;28;20148;-78
2023/03/23 00:56:08;;;;;;;12.60;3.83;;;;;;;;;;5061262;28;20024;-79
2023/03/23 00:58:34;;;;;;;8.57;2.60;;;;;;;;;;5058221;28;20032;-78
2023/03/23 01:01:00;;;;;;;11.30;4.40;;;;;;;;;;5065753;28;20033;-78
2023/03/23 01:03:27;;;;;;;9.98;2.72;;;;;;;;;;5065114;28;20033;-79
2023/03/23 01:05:54;;;;;;;10.77;3.00;;;;;;;;;;5069148;28;20029;-78
2023/03/23 01:08:21;;;;;;;6.65;2.97;;;;;;;;;;5064103;28;20082;-77
2023/03/23 01:10:47;;;;;;;12.80;3.75;;;;;;;;;;5062470;28;20017;-77
2023/03/23 01:13:14;;;;;;;9.25;2.95;;;;;;;;;;5066670;28;20017;-78
2023/03/23 01:15:41;;;;;;;11.15;2.75;;;;;;;;;;5065453;28;20025;-77
2023/03/23 01:18:07;;;;;;;13.00;3.42;;;;;;;;;;5060850;28;20052;-79
2023/03/23 01:20:35;;;;;;;5.72;3.08;;;;;;;;;;5061047;28;20120;-78
2023/03/23 01:23:01;;;;;;;12.07;4.50;;;;;;;;;;5063997;28;20025;-78
2023/03/23 01:25:28;;;;;;;8.13;2.80;;;;;;;;;;5059637;28;20033;-78
2023/03/23 01:27:54;;;;;;;5.70;2.60;;;;;;;;;;5064374;28;20117;-78
2023/03/23 01:30:20;;;;;;;10.82;3.65;;;;;;;;;;5061446;28;20035;-78
2023/03/23 01:32:46;;;;;;;7.15;2.97;;;;;;;;;;5057599;28;20025;-78
2023/03/23 01:35:13;;;;;;;9.10;3.20;;;;;;;;;;5057165;28;20039;-80
2023/03/23 01:37:40;;;;;;;9.88;3.13;;;;;;;;;;5058335;28;20441;-79
2023/03/23 01:40:06;;;;;;;9.63;3.35;;;;;;;;;;5059680;28;20467;-79
2023/03/23 01:42:35;;;;;;;7.55;2.45;;;;;;;;;;5057121;28;20033;-78
2023/03/23 01:45:21;;;;;;;7.82;3.10;;;;;;;;;;5062226;28;20063;-78
2023/03/23 01:47:48;;;;;;;8.20;2.50;;;;;;;;;;5042583;28;20292;-78
2023/03/23 01:50:15;;;;;;;7.22;3.15;;;;;;;;;;5054884;28;20025;-79
2023/03/23 01:52:41;;;;;;;3.22;2.20;;;;;;;;;;5064930;28;20028;-78
2023/03/23 01:55:08;;;;;;;2.15;1.95;;;;;;;;;;5061873;28;20017;-77
2023/03/23 01:57:34;;;;;;;2.63;2.17;;;;;;;;;;5060837;28;20021;-78
2023/03/23 02:00:07;;;;;;;3.05;1.88;;;;;;;;;;5061191;28;20027;-79
2023/03/23 02:02:35;;;;;;;9.43;2.13;;;;;;;;;;5064248;28;20017;-79
2023/03/23 02:05:04;;;;;;;2.72;1.70;;;;;;;;;;5057801;28;20025;-79
2023/03/23 02:07:32;;;;;;;6.68;2.10;;;;;;;;;;5058774;28;20033;-78
2023/03/23 02:09:59;;;;;;;4.07;2.08;;;;;;;;;;5057019;28;20025;-78
2023/03/23 02:12:25;;;;;;;3.95;1.98;;;;;;;;;;5063698;28;20128;-79
2023/03/23 02:14:52;;;;;;;5.05;1.88;;;;;;;;;;5051275;28;20113;-79
2023/03/23 02:17:21;;;;;;;4.82;2.47;;;;;;;;;;5061257;28;20044;-78
2023/03/23 02:20:06;;;;;;;3.65;2.38;;;;;;;;;;5060765;28;20386;-77
2023/03/23 02:22:48;;;;;;;6.57;3.03;;;;;;;;;;5058304;28;20064;-78
2023/03/23 02:25:34;;;;;;;5.65;2.22;;;;;;;;;;5055997;28;20040;-79
2023/03/23 02:28:19;;;;;;;2.50;2.05;;;;;;;;;;5052444;28;20045;-78
2023/03/23 02:30:54;;;;;;;4.53;2.45;;;;;;;;;;5054293;28;20313;-78
2023/03/23 02:33:20;;;;;;;;;;;;;;;;;;5061679;28;20029;-80
2023/03/23 02:35:58;;;;;;;4.90;2.58;;;;;;;;;;5059977;28;19905;-78
2023/03/23 02:38:36;;;;;;;5.95;3.00;;;;;;;;;;5048108;28;20033;-78
2023/03/23 02:41:03;;;;;;;8.63;3.10;;;;;;;;;;5057912;28;20663;-79
2023/03/23 02:43:35;;;;;;;9.85;4.35;;;;;;;;;;5062997;28;20490;-78
2023/03/23 02:46:06;;;;;;;9.15;3.05;;;;;;;;;;5059804;28;20097;-78
2023/03/23 02:48:32;;;;;;;9.75;3.13;;;;;;;;;;5055508;28;20029;-80
2023/03/23 02:51:00;;;;;;;15.35;4.40;;;;;;;;;;5069128;28;20029;-79
2023/03/23 02:53:27;;;;;;;10.13;3.45;;;;;;;;;;5055883;28;20025;-78
2023/03/23 02:55:55;;;;;;;13.43;4.28;;;;;;;;;;5058948;28;20028;-79
2023/03/23 02:58:21;;;;;;;8.63;3.00;;;;;;;;;;5057058;28;20057;-78
2023/03/23 03:00:49;;;;;;;12.20;3.65;;;;;;;;;;5061086;28;20021;-78
2023/03/23 03:03:17;;;;;;;6.22;2.80;;;;;;;;;;5059564;28;20036;-79
2023/03/23 03:05:49;;;;;;;9.13;3.13;;;;;;;;;;5062431;28;20025;-78
2023/03/23 03:08:27;;;;;;;9.77;2.70;;;;;;;;;;5061175;28;20067;-77
2023/03/23 03:10:53;;;;;;;8.13;3.53;;;;;;;;;;5056725;28;20047;-79
2023/03/23 03:13:47;;;;;;;9.05;2.92;;;;;;;;;;5063026;28;20023;-78
2023/03/23 03:16:13;;;;;;;8.20;2.83;;;;;;;;;;5055804;28;20033;-78
2023/03/23 03:18:43;;;;;;;8.98;2.85;;;;;;;;;;5063686;28;20029;-80
2023/03/23 03:21:12;;;;;;;9.25;3.17;;;;;;;;;;5062737;28;20033;-80
2023/03/23 03:23:41;;;;;;;19.95;3.83;;;;;;;;;;5064148;28;20102;-80
2023/03/23 03:26:09;;;;;;;9.95;3.15;;;;;;;;;;5060562;28;20029;-80
2023/03/23 03:28:36;;;;;;;10.80;3.45;;;;;;;;;;5060036;28;20071;-82
2023/03/23 03:31:03;;;;;;;9.82;2.78;;;;;;;;;;5052244;28;20482;-78
2023/03/23 03:33:31;;;;;;;8.82;2.85;;;;;;;;;;5064348;28;20018;-79
2023/03/23 03:36:02;;;;;;;9.45;2.97;;;;;;;;;;5052220;28;20043;-79
2023/03/23 03:38:28;;;;;;;6.82;2.80;;;;;;;;;;5059311;28;20028;-79
2023/03/23 03:40:55;;;;;;;8.43;3.85;;;;;;;;;;5061013;28;20029;-79
2023/03/23 03:43:21;;;;;;;8.43;3.20;;;;;;;;;;5051276;28;20018;-79
2023/03/23 03:45:47;;;;;;;10.45;3.15;;;;;;;;;;5055951;28;20460;-78
2023/03/23 03:48:13;;;;;;;4.75;2.33;;;;;;;;;;5061270;28;20033;-80
2023/03/23 03:50:40;;;;;;;8.70;2.83;;;;;;;;;;5062380;28;20025;-78
2023/03/23 03:53:06;;;;;;;3.97;2.17;;;;;;;;;;5053789;28;20013;-78
2023/03/23 03:55:35;;;;;;;9.15;3.17;;;;;;;;;;5063947;28;20025;-78
2023/03/23 03:58:01;;;;;;;7.38;2.22;;;;;;;;;;5064007;28;20021;-79
2023/03/23 04:00:27;;;;;;;13.40;2.65;;;;;;;;;;5063668;28;20021;-79
2023/03/23 04:02:54;;;;;;;6.95;3.03;;;;;;;;;;5060098;28;20049;-79
2023/03/23 04:05:22;;;;;;;10.57;3.22;;;;;;;;;;5066906;28;20036;-79
2023/03/23 04:07:51;;;;;;;6.93;2.80;;;;;;;;;;5063655;28;20025;-78
2023/03/23 04:10:21;;;;;;;6.57;3.08;;;;;;;;;;5059972;28;20466;-79
2023/03/23 04:12:47;;;;;;;10.35;2.78;;;;;;;;;;5060322;28;20013;-81
2023/03/23 04:15:14;;;;;;;6.53;2.50;;;;;;;;;;5065772;28;20104;-79
2023/03/23 04:17:40;;;;;;;4.75;2.15;;;;;;;;;;5066468;28;20025;-79
2023/03/23 04:20:13;;;;;;;7.05;2.58;;;;;;;;;;5062708;28;20878;-78
2023/03/23 04:22:43;;;;;;;4.90;2.65;;;;;;;;;;5066447;28;20021;-79
2023/03/23 04:25:11;;;;;;;6.63;2.28;;;;;;;;;;5058668;28;20052;-78
2023/03/23 04:27:38;;;;;;;6.38;2.17;;;;;;;;;;5059795;28;20037;-78
2023/03/23 04:30:06;;;;;;;6.22;2.55;;;;;;;;;;5060794;28;20032;-80
2023/03/23 04:32:32;;;;;;;6.00;2.17;;;;;;;;;;5058502;28;20063;-78
2023/03/23 04:35:01;;;;;;;4.93;2.83;;;;;;;;;;5064128;28;20053;-80
2023/03/23 04:37:28;;;;;;;7.40;2.53;;;;;;;;;;5057567;28;20022;-79
2023/03/23 04:40:02;;;;;;;4.47;2.13;;;;;;;;;;5055329;28;20034;-78
2023/03/23 04:42:31;;;;;;;6.43;2.00;;;;;;;;;;5055769;28;20471;-78
2023/03/23 04:44:58;;;;;;;6.43;2.60;;;;;;;;;;5065010;28;20110;-78
2023/03/23 04:47:29;;;;;;;7.88;2.08;;;;;;;;;;5059604;28;20036;-78
2023/03/23 04:49:58;;;;;;;7.57;2.08;;;;;;;;;;5061054;28;20205;-77
2023/03/23 04:52:28;;;;;;;9.50;2.40;;;;;;;;;;5059888;28;20026;-79
2023/03/23 04:54:55;;;;;;;6.75;2.30;;;;;;;;;;5061224;28;20080;-79
2023/03/23 04:57:22;;;;;;;5.90;2.70;;;;;;;;;;5063442;28;20120;-78
2023/03/23 04:59:48;;;;;;;4.40;3.10;;;;;;;;;;5060573;28;20026;-79
2023/03/23 05:02:14;;;;;;;7.82;2.35;;;;;;;;;;5063368;28;20086;-78
2023/03/23 05:04:42;;;;;;;7.80;2.55;;;;;;;;;;5061744;28;20029;-80
2023/03/23 05:07:08;;;;;;;7.03;2.83;;;;;;;;;;5061642;28;20403;-77
2023/03/23 05:09:35;;;;;;;6.00;2.17;;;;;;;;;;5063787;28;20033;-78
2023/03/23 05:12:05;;;;;;;5.53;2.70;;;;;;;;;;5064437;28;20452;-78
2023/03/23 05:14:31;;;;;;;12.00;4.13;;;;;;;;;;5062092;28;20151;-78
2023/03/23 05:16:57;;;;;;;6.13;2.40;;;;;;;;;;5057778;28;20104;-79
2023/03/23 05:19:24;;;;;;;6.22;2.72;;;;;;;;;;5064036;28;20403;-77
2023/03/23 05:21:50;;;;;;;5.85;3.15;;;;;;;;;;5064563;28;20040;-78
2023/03/23 05:24:17;;;;;;;6.10;2.58;;;;;;;;;;5054538;28;20021;-77
2023/03/23 05:26:44;;;;;;;4.50;1.90;;;;;;;;;;5072688;28;20028;-78
2023/03/23 05:29:10;;;;;;;5.03;2.15;;;;;;;;;;5063671;28;20067;-77
2023/03/23 05:31:37;;;;;;;4.70;2.33;;;;;;;;;;5061270;28;20080;-78
2023/03/23 05:34:03;;;;;;;4.68;2.15;;;;;;;;;;5062060;28;20017;-77
2023/03/23 05:36:29;;;;;;;10.38;2.88;;;;;;;;;;5064179;28;20096;-78
2023/03/23 05:38:56;;;;;;;5.55;2.00;;;;;;;;;;5058864;28;20029;-78
2023/03/23 05:41:23;;;;;;;5.80;2.28;;;;;;;;;;5059045;28;20024;-78
2023/03/23 05:43:49;;;;;;;5.40;2.53;;;;;;;;;;5059207;28;20228;-78
2023/03/23 05:46:15;;;;;;;6.18;2.53;;;;;;;;;;5064442;28;20144;-77
2023/03/23 05:48:41;;;;;;;10.25;3.58;;;;;;;;;;5063225;28;20029;-78
2023/03/23 05:51:08;;;;;;;4.70;2.00;;;;;;;;;;5064471;28;20017;-77
2023/03/23 05:53:35;;;;;;;5.40;2.72;;;;;;;;;;5059342;28;20997;-78
2023/03/23 05:56:01;;;;;;;6.65;2.60;;;;;;;;;;5062606;28;20086;-78
2023/03/23 05:58:28;;;;;;;6.97;2.28;;;;;;;;;;5055067;28;20029;-78
2023/03/23 06:00:55;;;;;;;8.43;2.30;;;;;;;;;;5059520;28;20514;-78
2023/03/23 06:03:22;;;;;;;6.50;2.25;;;;;;;;;;5062547;28;20032;-78
2023/03/23 06:05:48;;;;;;;6.30;2.03;;;;;;;;;;5064878;28;20036;-78
2023/03/23 06:08:14;;;;;;;6.75;1.85;;;;;;;;;;5055379;28;20025;-79
2023/03/23 06:10:40;;;;;;;6.43;2.10;;;;;;;;;;5059896;28;20079;-79
2023/03/23 06:13:07;;;;;;;5.30;1.90;;;;;;;;;;5063292;28;20049;-79
2023/03/23 06:15:33;;;;;;;7.88;2.20;;;;;;;;;;5057483;28;20025;-78
2023/03/23 06:18:00;;;;;;;4.13;1.85;;;;;;;;;;5051395;28;20344;-78
2023/03/23 06:20:26;;;;;;;8.43;2.30;;;;;;;;;;5059631;28;20032;-78
2023/03/23 06:22:52;;;;;;;6.35;2.10;;;;;;;;;;5062402;28;20043;-78
2023/03/23 06:25:19;;;;;;;9.65;2.97;;;;;;;;;;5061642;28;20501;-78
2023/03/23 06:27:46;;;;;;;6.25;2.22;;;;;;;;;;5055749;28;20060;-80
2023/03/23 06:30:14;;;;;;;7.28;2.38;;;;;;;;;;5058854;28;20162;-79
2023/03/23 06:32:43;;;;;;;7.30;2.20;;;;;;;;;;5063278;28;20049;-78
2023/03/23 06:35:11;;;;;;;5.28;2.17;;;;;;;;;;5063189;28;20025;-78
2023/03/23 06:37:37;;;;;;;3.13;2.10;;;;;;;;;;5062261;28;20067;-77
2023/03/23 06:40:06;;;;;;;6.95;2.10;;;;;;;;;;5060789;28;20532;-77
2023/03/23 06:42:32;;;;;;;5.40;2.53;;;;;;;;;;5062615;28;20039;-78
2023/03/23 06:45:00;;;;;;;5.93;2.55;;;;;;;;;;5062212;28;20938;-78
2023/03/23 06:47:26;;;;;;;4.90;2.28;;;;;;;;;;5061430;28;20113;-78
2023/03/23 06:49:52;;;;;;;12.65;3.20;;;;;;;;;;5062282;28;20435;-79
2023/03/23 06:52:18;;;;;;;5.00;2.30;;;;;;;;;;5063614;28;20025;-78
2023/03/23 06:54:45;;;;;;;9.35;2.15;;;;;;;;;;5063026;28;20045;-78
2023/03/23 06:57:11;;;;;;;7.53;2.47;;;;;;;;;;5058956;28;20044;-78
2023/03/23 06:59:37;;;;;;;11.65;3.03;;;;;;;;;;5060534;28;20068;-78
2023/03/23 07:02:04;;;;;;;7.75;3.67;;;;;;;;;;5055884;28;20033;-78
2023/03/23 07:04:30;;;;;;;6.90;2.30;;;;;;;;;;5058262;28;20033;-79
2023/03/23 07:06:56;;;;;;;4.28;2.30;;;;;;;;;;5057151;28;20040;-79
2023/03/23 07:09:22;;;;;;;5.75;2.33;;;;;;;;;;5058957;28;20027;-79
2023/03/23 07:11:51;;;;;;;9.30;2.70;;;;;;;;;;5061928;28;20021;-81
2023/03/23 07:14:17;;;;;;;13.73;2.70;;;;;;;;;;5051600;28;20021;-79
2023/03/23 07:16:43;;;;;;;9.07;2.95;;;;;;;;;;5057069;28;20953;-78
2023/03/23 07:19:10;;;;;;;9.90;3.85;;;;;;;;;;5061522;28;20097;-78
2023/03/23 07:21:36;;;;;;;5.45;3.58;;;;;;;;;;5059603;28;20021;-80
2023/03/23 07:24:02;;;;;;;9.98;3.40;;;;;;;;;;5057828;28;20053;-78
2023/03/23 07:26:29;;;;;;;11.40;2.72;;;;;;;;;;5062469;28;20071;-78
2023/03/23 07:28:55;;;;;;;6.30;2.67;;;;;;;;;;5064296;28;20143;-78
2023/03/23 07:31:21;;;;;;;11.13;4.00;;;;;;;;;;5060015;28;20021;-78
2023/03/23 07:33:48;;;;;;;6.93;2.65;;;;;;;;;;5059212;28;20496;-77
2023/03/23 07:36:14;;;;;;;10.98;2.92;;;;;;;;;;5062101;28;20116;-79
2023/03/23 07:38:41;;;;;;;7.85;2.75;;;;;;;;;;5059440;28;20083;-80
2023/03/23 07:41:07;;;;;;;8.13;3.40;;;;;;;;;;5060930;28;20549;-79
2023/03/23 07:43:33;;;;;;;9.63;2.95;;;;;;;;;;5052490;28;20033;-78
2023/03/23 07:45:59;;;;;;;8.48;3.40;;;;;;;;;;5058402;28;20033;-78
2023/03/23 07:48:26;;;;;;;5.28;2.70;;;;;;;;;;5060200;28;20037;-77
2023/03/23 07:50:52;;;;;;;9.35;3.38;;;;;;;;;;5057065;28;20044;-79
2023/03/23 07:53:18;;;;;;;10.80;3.28;;;;;;;;;;5059765;28;20395;-80
2023/03/23 07:55:44;;;;;;;10.00;3.00;;;;;;;;;;5057237;28;20033;-79
2023/03/23 07:58:11;;;;;;;9.43;2.42;;;;;;;;;;5054517;28;20029;-77
2023/03/23 08:00:38;;;;;;;13.10;2.67;;;;;;;;;;5054472;28;20018;-77
2023/03/23 08:03:06;;;;;;;8.45;2.95;;;;;;;;;;5058921;28;20029;-74
2023/03/23 08:05:33;;;;;;;7.53;2.83;;;;;;;;;;5055110;28;20021;-78
2023/03/23 08:08:00;;;;;;;12.73;3.33;;;;;;;;;;5058777;28;20020;-78
2023/03/23 08:10:26;;;;;;;11.38;3.08;;;;;;;;;;5053817;28;20052;-79
2023/03/23 08:12:54;;;;;;;8.50;2.92;;;;;;;;;;5060110;28;20037;-78
2023/03/23 08:15:21;;;;;;;14.98;3.40;;;;;;;;;;5052588;28;20040;-78
2023/03/23 08:17:48;;;;;;;6.38;2.83;;;;;;;;;;5058160;28;20043;-77
2023/03/23 08:20:14;;;;;;;11.93;2.60;;;;;;;;;;5056474;28;20049;-79
2023/03/23 08:22:42;;;;;;;9.65;2.83;;;;;;;;;;5060761;28;20029;-77
2023/03/23 08:25:10;;;;;;;10.10;2.95;;;;;;;;;;5058495;28;20021;-77
2023/03/23 08:27:37;;;;;;;6.93;2.60;;;;;;;;;;5052228;28;20057;-79
2023/03/23 08:30:05;;;;;;;7.30;2.50;;;;;;;;;;5054290;28;20029;-78
2023/03/23 08:32:31;;;;;;;8.63;3.50;;;;;;;;;;5057014;28;20406;-80
2023/03/23 08:34:58;;;;;;;7.28;2.78;;;;;;;;;;5057024;28;20025;-77
2023/03/23 08:37:24;;;;;;;7.88;2.13;;;;;;;;;;5048504;28;20035;-79
2023/03/23 08:39:55;;;;;;;8.20;2.33;;;;;;;;;;5047349;28;20029;-77
2023/03/23 08:42:22;;;;;;;6.05;2.33;;;;;;;;;;5053134;28;20040;-76
2023/03/23 08:44:48;;;;;;;9.85;2.45;;;;;;;;;;5056423;28;20042;-75
2023/03/23 08:47:15;;;;;;;6.47;2.53;;;;;;;;;;5050369;28;20457;-74
2023/03/23 08:49:42;;;;;;;9.40;3.28;;;;;;;;;;5054075;28;20036;-77
2023/03/23 08:52:09;;;;;;;7.72;2.42;;;;;;;;;;5057151;28;20029;-78
2023/03/23 08:54:35;;;;;;;7.03;2.90;;;;;;;;;;5050383;28;20047;-78
2023/03/23 08:57:02;;;;;;;5.10;2.53;;;;;;;;;;5055775;28;20080;-77
2023/03/23 08:59:32;;;;;;;6.50;2.22;;;;;;;;;;5060854;28;20029;-76
2023/03/23 09:01:58;;;;;;;8.70;4.07;;;;;;;;;;5057694;28;20029;-77
2023/03/23 09:04:24;;;;;;;5.13;2.00;;;;;;;;;;5058289;28;20049;-79
2023/03/23 09:06:50;;;;;;;11.30;2.63;;;;;;;;;;5062063;28;20056;-75
2023/03/23 09:09:16;;;;;;;13.05;3.05;;;;;;;;;;5054616;28;20040;-77
2023/03/23 09:11:45;;;;;;;9.93;2.58;;;;;;;;;;5055603;28;20029;-76
2023/03/23 09:14:13;;;;;;;10.23;2.47;;;;;;;;;;5058872;28;20063;-76
2023/03/23 09:16:40;;;;;;;9.77;3.65;;;;;;;;;;5056086;28;20057;-77
2023/03/23 09:19:08;;;;;;;10.20;2.92;;;;;;;;;;5053477;28;20112;-78
2023/03/23 09:21:35;;;;;;;8.90;2.92;;;;;;;;;;5055740;28;20407;-78
2023/03/23 09:24:01;;;;;;;8.15;3.30;;;;;;;;;;5058661;28;20039;-79
2023/03/23 09:26:28;;;;;;;6.57;2.72;;;;;;;;;;5057070;28;20036;-78
2023/03/23 09:28:56;;;;;;;6.43;2.25;;;;;;;;;;5058056;28;20044;-78
2023/03/23 09:31:23;;;;;;;8.52;2.90;;;;;;;;;;5055636;28;20040;-79
2023/03/23 09:33:52;;;;;;;10.48;2.58;;;;;;;;;;5053127;28;20101;-78
2023/03/23 09:36:22;;;;;;;5.88;2.60;;;;;;;;;;5052816;28;20048;-79
2023/03/23 09:38:48;;;;;;;11.45;2.95;;;;;;;;;;5055212;28;20033;-78
2023/03/23 09:41:33;;;;;;;6.80;2.53;;;;;;;;;;5075940;28;20021;-80
2023/03/23 09:44:06;;;;;;;9.00;3.63;;;;;;;;;;5058211;28;20043;-79
2023/03/23 09:46:47;;;;;;;12.00;2.72;;;;;;;;;;5062566;28;20036;-79
2023/03/23 09:49:25;;;;;;;7.53;3.40;;;;;;;;;;5055794;28;20038;-79
2023/03/23 09:51:54;;;;;;;8.50;2.83;;;;;;;;;;5056663;28;20032;-78
2023/03/23 09:54:37;;;;;;;5.13;2.75;;;;;;;;;;5071661;28;20025;-82
2023/03/23 09:57:03;;;;;;;7.38;2.50;;;;;;;;;;5058663;28;20363;-79
2023/03/23 09:59:48;;;;;;;5.40;2.30;;;;;;;;;;5057972;28;20029;-79
2023/03/23 10:02:17;;;;;;;7.55;3.08;;;;;;;;;;5054475;28;20042;-82
2023/03/23 10:04:47;;;;;;;5.78;2.78;;;;;;;;;;5064129;28;20029;-79
2023/03/23 10:07:15;;;;;;;9.48;2.75;;;;;;;;;;5058957;28;20415;-83
2023/03/23 10:09:42;;;;;;;11.00;2.40;;;;;;;;;;5059611;28;20033;-77
2023/03/23 10:12:08;;;;;;;10.55;3.25;;;;;;;;;;5063104;28;20025;-80
2023/03/23 10:14:34;;;;;;;7.90;2.85;;;;;;;;;;5065963;28;20088;-80
2023/03/23 10:17:05;;;;;;;5.63;2.15;;;;;;;;;;5060166;28;20040;-81
2023/03/23 10:19:42;;;;;;;5.97;2.50;;;;;;;;;;5068645;28;20029;-81
2023/03/23 10:22:13;;;;;;;8.75;3.40;;;;;;;;;;5061703;28;20025;-80
2023/03/23 10:24:42;;;;;;;14.00;2.90;;;;;;;;;;5070910;28;20048;-79
2023/03/23 10:27:15;;;;;;;9.10;2.40;;;;;;;;;;5069155;28;20033;-81
2023/03/23 10:29:44;;;;;;;6.97;2.90;;;;;;;;;;5064649;28;20028;-81
2023/03/23 10:32:13;;;;;;;5.95;2.65;;;;;;;;;;5068420;28;20013;-80
2023/03/23 10:35:01;;;;;;;4.68;2.38;;;;;;;;;;5062567;28;20025;-79
2023/03/23 10:37:29;;;;;;;5.53;2.47;;;;;;;;;;5061680;28;20024;-80
2023/03/23 10:40:03;;;;;;;9.40;3.85;;;;;;;;;;5057873;28;20034;-81
2023/03/23 10:42:37;;;;;;;7.03;2.40;;;;;;;;;;5063434;28;20084;-82
2023/03/23 10:45:22;;;;;;;8.13;2.67;;;;;;;;;;5052202;28;20037;-83
2023/03/23 10:48:02;;;;;;;5.95;2.60;;;;;;;;;;5068316;28;20036;-83
2023/03/23 10:50:31;;;;;;;9.88;3.65;;;;;;;;;;5065978;28;20105;-83
2023/03/23 10:53:01;;;;;;;11.02;2.47;;;;;;;;;;5068340;28;20024;-83
2023/03/23 10:55:39;;;;;;;6.75;2.03;;;;;;;;;;5056564;28;20029;-84
2023/03/23 10:58:10;;;;;;;10.48;3.63;;;;;;;;;;5064911;28;20044;-83
2023/03/23 11:00:42;;;;;;;8.23;2.33;;;;;;;;;;5069090;28;20043;-85
2023/03/23 11:03:18;;;;;;;8.27;2.22;;;;;;;;;;5067756;28;20056;-80
2023/03/23 11:05:46;;;;;;;9.40;3.20;;;;;;;;;;5065026;28;20032;-82
2023/03/23 11:08:49;;;;;;;5.70;2.47;;;;;;;;;;5067891;28;20398;-83
2023/03/23 11:11:22;;;;;;;8.48;2.38;;;;;;;;;;5067102;28;20108;-86
2023/03/23 11:14:00;;;;;;;8.10;2.42;;;;;;;;;;5069392;28;20037;-83
2023/03/23 11:16:35;;;;;;;7.72;2.00;;;;;;;;;;5058520;28;20036;-82
2023/03/23 11:19:17;;;;;;;6.80;2.63;;;;;;;;;;5066036;28;20095;-82
2023/03/23 11:22:13;;;;;;;7.57;2.70;;;;;;;;;;5060875;28;20014;-85
2023/03/23 11:24:47;;;;;;;4.40;1.83;;;;;;;;;;5060620;28;20040;-84
2023/03/23 11:27:15;;;;;;;7.25;2.53;;;;;;;;;;5050892;28;20049;-81
2023/03/23 11:29:55;;;;;;;6.40;2.40;;;;;;;;;;5062850;28;20095;-80
2023/03/23 11:32:28;;;;;;;2.92;1.90;;;;;;;;;;5065295;28;20081;-79
2023/03/23 11:37:36;;;;;;;5.45;1.98;;;;;;;;;;5105650;22;20054;-83
2023/03/23 11:40:03;;;;;;;3.67;1.80;;;;;;;;;;5030355;28;20047;-81
2023/03/23 11:42:48;;;;;;;2.55;1.95;;;;;;;;;;5012420;28;20050;-81
2023/03/23 11:45:40;;;;;;;3.42;1.75;;;;;;;;;;5029526;28;20030;-80
2023/03/23 11:48:07;;;;;;;4.13;2.25;;;;;;;;;;5027271;28;20132;-80
2023/03/23 11:50:45;;;;;;;2.78;1.50;;;;;;;;;;5026924;28;20026;-81
2023/03/23 11:55:55;;;;;;;2.60;1.83;;;;;;;;;;4830457;22;20109;-81
2023/03/23 11:58:35;;;;;;;;;;;;;;;;;;;;;
2023/03/23 12:01:13;;;;;;;4.50;1.95;;;;;;;;;;5045721;28;20054;-80
2023/03/23 12:04:10;;;;;;;3.70;1.95;;;;;;;;;;5047699;28;20018;-83
2023/03/23 12:06:50;;;;;;;4.00;2.20;;;;;;;;;;5046497;28;20017;-80
2023/03/23 12:09:29;;;;;;;7.57;2.75;;;;;;;;;;5049200;28;20021;-84
2023/03/23 12:12:14;;;;;;;5.30;2.17;;;;;;;;;;5049145;28;20113;-81
2023/03/23 12:14:59;;;;;;;7.40;2.40;;;;;;;;;;5043962;28;20099;-79
2023/03/23 12:17:34;;;;;;;5.40;2.75;;;;;;;;;;5049654;22;20506;-86
2023/03/23 12:20:00;;;;;;;;;;;;;;;;;;5037169;28;20025;-87
2023/03/23 12:22:28;;;;;;;6.35;2.40;;;;;;;;;;5037308;28;19913;-89
2023/03/23 12:25:15;;;;;;;7.45;2.50;;;;;;;;;;5035825;28;20043;-87
2023/03/23 12:27:44;;;;;;;10.48;2.95;;;;;;;;;;5034052;28;20068;-87
2023/03/23 12:30:10;;;;;;;7.07;2.50;;;;;;;;;;5038417;28;20219;-87
2023/03/23 12:32:36;;;;;;;8.35;2.67;;;;;;;;;;5035636;28;20017;-85
2023/03/23 12:35:14;;;;;;;7.43;2.70;;;;;;;;;;5034352;28;20041;-86
2023/03/23 12:37:46;;;;;;;7.65;2.47;;;;;;;;;;5036556;28;20083;-85
2023/03/23 12:40:22;;;;;;;8.15;2.50;;;;;;;;;;5035263;28;20370;-88
2023/03/23 12:43:00;;;;;;;7.68;2.63;;;;;;;;;;5035373;28;20029;-87
2023/03/23 12:45:30;;;;;;;7.28;2.95;;;;;;;;;;5032909;28;20031;-86
2023/03/23 12:48:05;;;;;;;6.78;3.25;;;;;;;;;;5033337;28;20029;-85
2023/03/23 12:50:33;;;;;;;4.57;2.35;;;;;;;;;;5036885;28;20033;-85
2023/03/23 12:53:06;;;;;;;9.10;2.70;;;;;;;;;;5033392;28;20037;-85
2023/03/23 12:55:47;;;;;;;5.03;2.40;;;;;;;;;;5033944;28;20018;-85
2023/03/23 12:58:16;;;;;;;6.80;2.47;;;;;;;;;;5037375;28;20553;-86
2023/03/23 13:00:58;;;;;;;9.00;2.83;;;;;;;;;;5032690;28;20031;-86
2023/03/23 13:03:26;;;;;;;6.63;2.60;;;;;;;;;;5031139;28;20026;-86
2023/03/23 13:06:11;;;;;;;6.57;2.42;;;;;;;;;;5035450;28;20021;-87
2023/03/23 13:08:40;;;;;;;12.13;3.30;;;;;;;;;;5032350;28;20054;-86
2023/03/23 13:11:11;;;;;;;8.93;3.22;;;;;;;;;;5033736;28;20490;-87
2023/03/23 13:13:57;;;;;;;14.10;3.03;;;;;;;;;;5034705;28;20052;-84
2023/03/23 13:16:32;;;;;;;8.88;2.28;;;;;;;;;;5031164;28;20621;-84
2023/03/23 13:18:58;;;;;;;;;;;;;;;;;;5047943;28;20045;-91
2023/03/23 13:21:31;;;;;;;6.10;2.45;;;;;;;;;;5035973;28;19924;-88
2023/03/23 13:24:03;;;;;;;7.43;2.70;;;;;;;;;;5036192;28;20029;-88
2023/03/23 13:26:30;;;;;;;10.63;2.45;;;;;;;;;;5036077;28;20106;-90
2023/03/23 13:29:01;;;;;;;7.88;2.75;;;;;;;;;;5032687;28;20029;-89
2023/03/23 13:31:35;;;;;;;9.52;2.70;;;;;;;;;;5034168;28;20025;-85
2023/03/23 13:34:06;;;;;;;6.75;2.40;;;;;;;;;;5035971;28;20021;-91
2023/03/23 13:36:35;;;;;;;5.75;2.22;;;;;;;;;;5034921;28;20098;-88
2023/03/23 13:39:04;;;;;;;7.75;2.30;;;;;;;;;;5035320;28;20035;-90
2023/03/23 13:41:30;;;;;;;3.60;2.63;;;;;;;;;;5035347;28;20029;-87
2023/03/23 13:44:17;;;;;;;4.97;2.03;;;;;;;;;;5036287;28;20033;-83
2023/03/23 13:46:54;;;;;;;9.07;2.53;;;;;;;;;;5033847;28;20125;-86
2023/03/23 13:49:22;;;;;;;8.05;2.28;;;;;;;;;;5036621;28;20041;-83
2023/03/23 13:52:02;;;;;;;5.75;2.80;;;;;;;;;;5032230;28;20677;-82
2023/03/23 13:54:42;;;;;;;6.28;3.20;;;;;;;;;;5029582;28;20030;-81
2023/03/23 13:57:28;;;;;;;7.15;2.38;;;;;;;;;;5032279;28;20036;-82
2023/03/23 13:59:59;;;;;;;7.80;2.95;;;;;;;;;;5031271;28;20493;-85
2023/03/23 14:02:31;;;;;;;13.02;3.03;;;;;;;;;;5031313;28;20089;-83
2023/03/23 14:04:57;;;;;;;6.90;2.63;;;;;;;;;;5032048;28;20466;-84
2023/03/23 14:07:24;;;;;;;7.00;2.30;;;;;;;;;;5031130;28;20030;-83
2023/03/23 14:09:50;;;;;;;6.05;2.28;;;;;;;;;;5029197;28;20025;-86
2023/03/23 14:12:27;;;;;;;6.65;2.78;;;;;;;;;;5027043;28;20034;-80
2023/03/23 14:15:01;;;;;;;4.50;2.17;;;;;;;;;;5030549;28;20052;-80
2023/03/23 14:17:29;;;;;;;6.30;2.95;;;;;;;;;;5030495;28;20073;-79
2023/03/23 14:19:57;;;;;;;6.88;3.13;;;;;;;;;;5024842;28;20044;-82
2023/03/23 14:22:25;;;;;;;4.18;1.90;;;;;;;;;;5022358;28;20172;-79
2023/03/23 14:24:51;;;;;;;5.93;2.33;;;;;;;;;;5025336;28;21822;-79
2023/03/23 14:27:21;;;;;;;4.13;2.08;;;;;;;;;;5029883;28;20025;-78
2023/03/23 14:30:08;;;;;;;5.95;2.10;;;;;;;;;;5024940;28;20072;-80
2023/03/23 14:32:34;;;;;;;4.57;2.05;;;;;;;;;;5025274;28;20037;-80
2023/03/23 14:35:30;;;;;;;7.18;2.20;;;;;;;;;;5025986;28;20486;-80
2023/03/23 14:37:57;;;;;;;6.95;2.58;;;;;;;;;;5005373;28;20030;-82
2023/03/23 14:40:26;;;;;;;6.85;2.92;;;;;;;;;;5026383;28;20037;-81
2023/03/23 14:42:54;;;;;;;7.95;2.85;;;;;;;;;;5027691;28;20040;-82
2023/03/23 14:45:20;;;;;;;7.40;2.78;;;;;;;;;;5024614;28;20120;-83
2023/03/23 14:47:49;;;;;;;7.47;2.50;;;;;;;;;;5026901;28;20022;-81
2023/03/23 14:50:36;;;;;;;7.28;3.03;;;;;;;;;;5028248;28;20522;-89
2023/03/23 14:53:14;;;;;;;7.95;3.05;;;;;;;;;;5027659;28;20044;-81
2023/03/23 14:55:43;;;;;;;8.38;2.85;;;;;;;;;;5031300;28;20026;-81
2023/03/23 14:58:13;;;;;;;12.07;3.28;;;;;;;;;;5030037;28;20030;-82
2023/03/23 15:00:42;;;;;;;5.28;2.67;;;;;;;;;;5036353;28;20033;-82
2023/03/23 15:03:11;;;;;;;11.40;2.75;;;;;;;;;;5025043;28;20499;-79
2023/03/23 15:05:41;;;;;;;6.05;3.05;;;;;;;;;;5023384;28;20037;-80